Time;durP1;ratioP1;P1;durP2;ratioP2;P2;SDS_P1;SDS_P2;PMS_P1;PMS_P2;Temp;Humidity;BMP_temperature;BMP_pressure;BME280_temperature;BME280_humidity;BME280_pressure;Samples;Min_cycle;Max_cycle;Signal;HPM_P1;HPM_P2
2021/10/16 00:01:20;;;;;;;18.40;6.00;;;;;;;5.58;96.97;101363.36;115740;1192;62044;-80
2021/10/16 00:03:47;;;;;;;26.70;7.90;;;;;;;5.57;97.23;101361.34;115696;1192;60275;-80
2021/10/16 00:06:15;;;;;;;25.30;6.70;;;;;;;5.55;97.19;101361.67;115611;1191;74655;-80
2021/10/16 00:08:42;;;;;;;28.10;6.30;;;;;;;5.54;97.00;101364.22;115730;1192;72410;-81
2021/10/16 00:11:10;;;;;;;17.50;6.50;;;;;;;5.54;97.22;101363.52;115681;1192;73903;-80
2021/10/16 00:13:36;;;;;;;17.30;5.30;;;;;;;5.54;97.26;101371.59;115704;1192;62791;-80
2021/10/16 00:16:04;;;;;;;25.90;6.60;;;;;;;5.54;97.13;101369.68;115719;1192;60319;-80
2021/10/16 00:18:34;;;;;;;21.70;6.70;;;;;;;5.52;97.05;101371.72;115776;1192;74900;-80
2021/10/16 00:21:02;;;;;;;20.90;5.60;;;;;;;5.52;97.01;101372.63;115733;1192;70863;-80
2021/10/16 00:23:29;;;;;;;27.50;6.00;;;;;;;5.51;97.26;101373.42;115781;1192;73071;-80
2021/10/16 00:25:56;;;;;;;19.40;5.40;;;;;;;5.50;97.62;101374.00;115733;1192;62159;-80
2021/10/16 00:28:23;;;;;;;23.00;5.90;;;;;;;5.50;97.66;101375.96;115812;1192;61016;-80
2021/10/16 00:30:50;;;;;;;25.50;6.40;;;;;;;5.50;97.45;101375.05;115777;1192;75649;-80
2021/10/16 00:33:16;;;;;;;26.80;5.90;;;;;;;5.49;97.23;101377.06;115780;1193;70802;-80
2021/10/16 00:35:43;;;;;;;19.60;5.10;;;;;;;5.48;97.45;101374.86;115725;1192;72795;-80
2021/10/16 00:38:10;;;;;;;27.80;5.90;;;;;;;5.47;97.28;101378.40;115734;1192;59011;-82
2021/10/16 00:40:37;;;;;;;26.30;5.80;;;;;;;5.47;97.33;101382.14;115757;1192;60792;-81
2021/10/16 00:43:03;;;;;;;22.50;5.50;;;;;;;5.45;97.09;101378.06;115743;1192;73517;-81
2021/10/16 00:45:30;;;;;;;21.50;5.20;;;;;;;5.43;97.14;101383.20;115673;1192;70998;-81
2021/10/16 00:47:56;;;;;;;16.30;4.70;;;;;;;5.40;97.18;101380.97;115725;1192;59278;-81
2021/10/16 00:50:24;;;;;;;17.50;5.30;;;;;;;5.39;97.22;101383.17;115745;1192;58885;-81
2021/10/16 00:52:51;;;;;;;20.90;4.80;;;;;;;5.38;97.49;101381.45;115711;1192;60058;-81
2021/10/16 00:55:20;;;;;;;22.40;5.60;;;;;;;5.39;97.74;101383.72;115692;1192;74592;-81
2021/10/16 00:57:47;;;;;;;20.90;6.40;;;;;;;5.38;97.62;101383.78;115733;1192;72569;-81
2021/10/16 01:00:14;;;;;;;23.00;5.50;;;;;;;5.39;97.52;101383.55;115587;1192;73650;-81
2021/10/16 01:02:41;;;;;;;24.30;5.20;;;;;;;5.39;97.87;101382.48;115749;1191;61968;-81
2021/10/16 01:05:09;;;;;;;15.90;4.00;;;;;;;5.41;98.23;101386.13;115725;1193;61045;-81
2021/10/16 01:07:36;;;;;;;23.90;6.90;;;;;;;5.44;98.26;101388.88;115646;1192;76740;-82
2021/10/16 01:10:08;;;;;;;20.40;5.10;;;;;;;5.47;98.28;101389.73;115688;1192;71096;-81
2021/10/16 01:12:37;;;;;;;23.90;5.60;;;;;;;5.50;98.11;101388.92;115768;1192;72593;-82
2021/10/16 01:15:07;;;;;;;17.00;5.50;;;;;;;5.52;97.93;101389.46;115734;1192;61937;-82
2021/10/16 01:17:35;;;;;;;15.30;5.50;;;;;;;5.55;97.95;101389.03;115822;1192;59274;-81
2021/10/16 01:20:07;;;;;;;17.00;5.80;;;;;;;5.58;97.84;101390.69;115788;1192;76039;-81
2021/10/16 01:22:37;;;;;;;17.00;4.50;;;;;;;5.61;97.40;101393.80;115764;1192;72442;-81
2021/10/16 01:25:06;;;;;;;24.10;6.40;;;;;;;5.62;97.20;101396.86;115737;1192;73674;-81
2021/10/16 01:27:34;;;;;;;21.60;5.10;;;;;;;5.66;97.48;101392.89;115811;1192;61051;-82
2021/10/16 01:30:01;;;;;;;24.40;6.30;;;;;;;5.70;97.57;101390.38;115791;1191;59062;-81
2021/10/16 01:32:28;;;;;;;23.50;6.30;;;;;;;5.75;97.37;101391.44;115682;1192;74574;-81
2021/10/16 01:34:54;;;;;;;18.40;4.90;;;;;;;5.78;97.26;101394.88;115734;1192;71861;-81
2021/10/16 01:37:21;;;;;;;32.40;5.60;;;;;;;5.82;97.31;101394.55;115549;1192;73605;-81
2021/10/16 01:39:48;;;;;;;21.20;6.20;;;;;;;5.87;97.37;101388.17;115692;1192;63334;-81
2021/10/16 01:42:14;;;;;;;19.70;6.00;;;;;;;5.91;97.27;101391.54;115671;1192;59133;-81
2021/10/16 01:44:41;;;;;;;31.00;6.60;;;;;;;5.95;96.92;101391.93;115786;1192;74694;-81
2021/10/16 01:47:08;;;;;;;19.20;5.50;;;;;;;5.99;96.97;101387.94;115754;1192;71140;-81
2021/10/16 01:49:36;;;;;;;23.10;6.20;;;;;;;6.03;96.92;101385.94;115766;1192;74129;-82
2021/10/16 01:52:04;;;;;;;14.30;4.70;;;;;;;6.07;97.05;101385.14;115718;1192;62284;-81
2021/10/16 01:54:31;;;;;;;16.00;4.40;;;;;;;6.08;96.93;101376.08;115728;1192;61455;-81
2021/10/16 01:56:58;;;;;;;27.90;6.50;;;;;;;6.11;96.74;101375.17;115764;1192;75631;-81
2021/10/16 01:59:26;;;;;;;16.20;5.00;;;;;;;6.12;96.62;101370.97;115800;1192;71232;-81
2021/10/16 02:02:08;;;;;;;14.40;4.80;;;;;;;6.15;96.56;101364.98;115786;1192;72611;-82
2021/10/16 02:04:35;;;;;;;33.10;4.70;;;;;;;6.18;96.57;101367.34;115757;1192;61883;-81
2021/10/16 02:07:02;;;;;;;35.40;5.30;;;;;;;6.20;96.24;101366.83;115706;1192;60146;-82
2021/10/16 02:09:28;;;;;;;18.70;5.20;;;;;;;6.19;96.09;101367.52;115736;1192;75569;-81
2021/10/16 02:11:55;;;;;;;19.90;4.30;;;;;;;6.15;95.82;101370.23;115746;1192;58893;-81
2021/10/16 02:14:21;;;;;;;20.10;5.50;;;;;;;6.12;95.71;101368.40;115732;1192;59084;-81
2021/10/16 02:16:48;;;;;;;26.60;4.70;;;;;;;6.08;95.41;101372.21;115606;1192;59024;-82
2021/10/16 02:19:19;;;;;;;26.00;5.60;;;;;;;6.02;95.41;101371.83;115706;1192;59555;-80
2021/10/16 02:21:46;;;;;;;21.80;4.10;;;;;;;5.95;95.48;101369.77;115739;1192;74275;-81
2021/10/16 02:24:13;;;;;;;16.80;4.10;;;;;;;5.89;95.64;101376.80;115822;1192;71520;-81
2021/10/16 02:26:39;;;;;;;17.70;4.20;;;;;;;5.83;95.58;101376.20;115764;1192;73159;-81
2021/10/16 02:29:06;;;;;;;21.00;4.50;;;;;;;5.77;95.86;101375.85;115765;1192;62120;-81
2021/10/16 02:31:32;;;;;;;26.80;4.30;;;;;;;5.73;96.21;101375.80;115771;1192;58987;-81
2021/10/16 02:33:59;;;;;;;20.50;5.10;;;;;;;5.69;96.25;101379.64;115697;1192;75986;-81
2021/10/16 02:36:26;;;;;;;22.60;4.80;;;;;;;5.65;96.22;101380.70;115596;1192;59306;-81
2021/10/16 02:38:52;;;;;;;25.70;4.40;;;;;;;5.60;96.30;101377.91;115671;1192;72509;-80
2021/10/16 02:41:19;;;;;;;17.20;4.60;;;;;;;5.57;96.44;101382.75;115608;1192;61852;-80
2021/10/16 02:43:45;;;;;;;20.00;5.50;;;;;;;5.53;96.59;101383.41;115782;1192;60006;-80
2021/10/16 02:46:12;;;;;;;18.10;5.00;;;;;;;5.49;96.39;101382.36;115732;1191;59100;-80
2021/10/16 02:48:39;;;;;;;25.60;4.60;;;;;;;5.44;96.54;101384.64;115813;1192;72209;-80
2021/10/16 02:51:05;;;;;;;16.40;4.50;;;;;;;5.41;96.77;101384.59;115439;1193;72638;-80
2021/10/16 02:53:35;;;;;;;30.90;5.10;;;;;;;5.38;96.81;101383.91;115849;1192;61757;-80
2021/10/16 02:56:01;;;;;;;25.10;5.60;;;;;;;5.35;97.04;101390.02;115778;1192;61342;-80
2021/10/16 02:58:28;;;;;;;16.00;6.30;;;;;;;5.30;97.08;101389.44;115743;1192;75366;-80
2021/10/16 03:00:55;;;;;;;31.10;4.90;;;;;;;5.27;96.99;101390.23;115814;1192;70966;-81
2021/10/16 03:03:21;;;;;;;26.70;5.70;;;;;;;5.23;96.57;101392.49;115679;1192;72484;-80
2021/10/16 03:05:48;;;;;;;23.90;5.10;;;;;;;5.16;96.43;101395.30;115761;1192;59047;-81
2021/10/16 03:08:14;;;;;;;20.30;5.00;;;;;;;5.13;96.79;101398.58;115298;1192;60927;-81
2021/10/16 03:10:43;;;;;;;23.90;5.40;;;;;;;5.07;96.57;101400.42;115504;1192;75737;-80
2021/10/16 03:13:09;;;;;;;21.90;5.20;;;;;;;5.04;97.11;101398.60;115582;1192;72527;-81
2021/10/16 03:15:36;;;;;;;18.60;4.50;;;;;;;5.00;97.11;101396.78;115556;1192;73605;-81
2021/10/16 03:18:03;;;;;;;17.40;4.50;;;;;;;4.95;96.92;101397.70;115566;1192;59042;-80
2021/10/16 03:20:29;;;;;;;11.50;4.50;;;;;;;4.92;97.31;101399.88;115494;1192;59363;-80
2021/10/16 03:22:56;;;;;;;21.00;4.50;;;;;;;4.89;97.58;101397.61;115539;1192;75537;-82
2021/10/16 03:25:23;;;;;;;15.10;4.50;;;;;;;4.87;97.75;101396.39;115582;1192;72029;-83
2021/10/16 03:27:49;;;;;;;10.00;3.90;;;;;;;4.85;97.90;101394.77;115598;1192;73846;-82
2021/10/16 03:30:16;;;;;;;16.30;4.50;;;;;;;4.84;98.06;101398.00;115633;1192;59268;-81
2021/10/16 03:32:42;;;;;;;20.60;4.30;;;;;;;4.83;97.98;101401.13;115674;1184;60951;-81
2021/10/16 03:35:09;;;;;;;25.40;5.60;;;;;;;4.81;98.00;101397.54;115634;1191;74673;-81
2021/10/16 03:37:36;;;;;;;25.80;4.80;;;;;;;4.81;98.13;101394.44;115665;1192;72042;-81
2021/10/16 03:40:03;;;;;;;20.60;4.70;;;;;;;4.82;98.44;101400.28;115626;1192;59054;-81
2021/10/16 03:42:29;;;;;;;21.00;5.20;;;;;;;4.84;98.72;101398.31;115667;1192;63232;-81
2021/10/16 03:44:56;;;;;;;22.30;4.70;;;;;;;4.87;98.61;101407.38;115691;1192;60236;-81
2021/10/16 03:47:23;;;;;;;20.40;6.10;;;;;;;4.88;98.30;101408.03;115748;1192;75768;-81
2021/10/16 03:49:49;;;;;;;20.10;6.00;;;;;;;4.89;98.32;101403.80;115693;1192;58999;-81
2021/10/16 03:52:16;;;;;;;15.50;4.20;;;;;;;4.89;98.23;101400.41;115751;1192;60605;-81
2021/10/16 03:54:43;;;;;;;16.00;5.90;;;;;;;4.88;98.50;101394.73;115780;1192;61636;-81
2021/10/16 03:57:09;;;;;;;13.70;4.40;;;;;;;4.88;98.65;101398.21;115857;1192;60186;-81
2021/10/16 03:59:42;;;;;;;22.80;4.80;;;;;;;4.88;98.77;101399.10;115836;1192;75747;-82
2021/10/16 04:02:10;;;;;;;16.20;5.50;;;;;;;4.88;98.99;101399.14;115827;1192;70935;-81
2021/10/16 04:04:37;;;;;;;18.90;5.00;;;;;;;4.87;98.69;101396.40;115866;1192;72271;-81
2021/10/16 04:07:04;;;;;;;18.40;5.50;;;;;;;4.86;98.64;101399.61;115777;1192;61882;-81
2021/10/16 04:09:31;;;;;;;30.40;4.90;;;;;;;4.85;98.74;101401.23;115852;1192;61234;-81
2021/10/16 04:11:58;;;;;;;18.30;4.90;;;;;;;4.84;98.60;101398.70;115825;1192;74911;-81
2021/10/16 04:14:25;;;;;;;17.40;5.30;;;;;;;4.82;98.87;101397.63;115871;1187;72071;-81
2021/10/16 04:16:51;;;;;;;19.40;5.90;;;;;;;4.81;98.82;101403.54;115778;1192;72373;-81
2021/10/16 04:19:18;;;;;;;22.00;5.00;;;;;;;4.79;98.62;101403.71;115822;1192;59175;-81
2021/10/16 04:21:45;;;;;;;19.20;4.70;;;;;;;4.75;98.42;101409.61;115861;1192;60749;-82
2021/10/16 04:24:11;;;;;;;25.80;5.20;;;;;;;4.70;98.17;101419.26;115863;1192;75091;-80
2021/10/16 04:26:38;;;;;;;14.20;4.60;;;;;;;4.68;98.38;101413.50;115831;1192;72024;-81
2021/10/16 04:29:04;;;;;;;26.80;5.70;;;;;;;4.66;98.70;101414.89;115872;1191;72806;-80
2021/10/16 04:31:32;;;;;;;22.00;4.50;;;;;;;4.63;98.59;101412.09;115800;1192;62081;-80
2021/10/16 04:33:59;;;;;;;18.30;4.30;;;;;;;4.61;98.60;101413.33;115864;1192;60276;-80
2021/10/16 04:36:27;;;;;;;19.70;5.00;;;;;;;4.60;98.67;101413.60;115798;1192;74510;-80
2021/10/16 04:38:54;;;;;;;26.50;5.70;;;;;;;4.61;99.12;101413.85;115838;1192;72129;-80
2021/10/16 04:41:21;;;;;;;19.30;5.40;;;;;;;4.62;98.82;101411.17;115829;1192;72066;-81
2021/10/16 04:43:48;;;;;;;25.20;5.90;;;;;;;4.59;98.61;101412.09;115853;1192;62085;-81
2021/10/16 04:46:14;;;;;;;27.60;6.00;;;;;;;4.56;98.52;101409.52;115682;1192;61258;-81
2021/10/16 04:48:43;;;;;;;20.80;6.30;;;;;;;4.53;98.42;101410.77;115760;1192;74627;-81
2021/10/16 04:51:11;;;;;;;15.50;5.70;;;;;;;4.53;98.45;101412.73;115854;1192;71220;-82
2021/10/16 04:53:39;;;;;;;26.30;5.90;;;;;;;4.53;98.65;101411.84;115851;1192;72620;-82
2021/10/16 04:56:06;;;;;;;22.60;8.20;;;;;;;4.53;98.97;101408.30;115837;1192;61975;-82
2021/10/16 04:58:33;;;;;;;19.40;6.10;;;;;;;4.55;99.04;101413.46;115937;1192;59914;-82
2021/10/16 05:01:00;;;;;;;18.20;6.00;;;;;;;4.57;99.18;101414.01;115866;1192;74775;-83
2021/10/16 05:03:26;;;;;;;21.00;7.00;;;;;;;4.59;99.32;101419.44;115846;1191;70983;-80
2021/10/16 05:05:53;;;;;;;21.20;7.30;;;;;;;4.62;99.29;101423.24;115861;1192;72791;-80
2021/10/16 05:08:21;;;;;;;24.00;6.90;;;;;;;4.64;99.26;101425.83;115878;1192;62742;-80
2021/10/16 05:10:48;;;;;;;21.10;7.50;;;;;;;4.69;99.37;101421.45;115889;1192;60203;-80
2021/10/16 05:13:15;;;;;;;23.00;6.70;;;;;;;4.73;99.49;101419.95;115830;1192;75649;-80
2021/10/16 05:15:43;;;;;;;27.10;6.90;;;;;;;4.76;99.48;101423.40;115850;1191;69613;-80
2021/10/16 05:18:09;;;;;;;30.70;7.20;;;;;;;4.78;99.35;101424.78;115848;1192;72881;-82
2021/10/16 05:20:36;;;;;;;30.00;7.20;;;;;;;4.81;99.58;101420.33;115866;1192;61895;-81
2021/10/16 05:23:02;;;;;;;26.00;8.10;;;;;;;4.84;99.54;101422.05;115846;1192;61224;-81
2021/10/16 05:25:29;;;;;;;22.00;6.50;;;;;;;4.86;99.49;101416.08;115734;1192;59021;-80
2021/10/16 05:27:56;;;;;;;28.10;10.30;;;;;;;4.88;99.57;101416.48;115738;1192;71238;-80
2021/10/16 05:30:23;;;;;;;32.10;9.40;;;;;;;4.90;99.55;101417.20;115636;1192;73756;-81
2021/10/16 05:32:49;;;;;;;24.60;9.10;;;;;;;4.93;99.65;101415.05;115839;1192;63065;-81
2021/10/16 05:35:16;;;;;;;25.90;9.20;;;;;;;4.96;99.46;101417.45;115816;1192;60007;-81
2021/10/16 05:37:42;;;;;;;21.10;8.40;;;;;;;4.98;99.57;101419.38;115830;1184;59295;-80
2021/10/16 05:40:09;;;;;;;37.70;10.90;;;;;;;5.01;99.40;101419.55;115764;1192;59027;-80
2021/10/16 05:42:36;;;;;;;35.50;9.30;;;;;;;5.03;99.26;101426.69;115856;1191;72755;-80
2021/10/16 05:45:03;;;;;;;36.70;11.50;;;;;;;5.05;99.25;101425.14;115645;1192;62912;-80
2021/10/16 05:47:30;;;;;;;29.10;9.30;;;;;;;5.07;99.10;101427.77;115818;1192;61926;-81
2021/10/16 05:49:56;;;;;;;24.70;12.40;;;;;;;5.08;98.90;101430.16;115769;1192;75824;-81
2021/10/16 05:52:23;;;;;;;37.40;12.20;;;;;;;5.11;98.98;101431.86;115714;1192;70804;-81
2021/10/16 05:54:50;;;;;;;35.50;9.70;;;;;;;5.13;98.90;101434.48;115727;1191;73840;-81
2021/10/16 05:57:16;;;;;;;30.80;11.70;;;;;;;5.17;98.93;101438.45;115598;1192;62871;-80
2021/10/16 05:59:43;;;;;;;36.50;12.60;;;;;;;5.19;98.75;101438.23;115824;1192;59101;-80
2021/10/16 06:02:12;;;;;;;47.30;12.50;;;;;;;5.21;98.58;101433.72;115698;1192;60839;-80
2021/10/16 06:04:39;;;;;;;39.90;11.40;;;;;;;5.23;98.65;101437.35;115810;1192;71243;-80
2021/10/16 06:07:06;;;;;;;42.30;11.00;;;;;;;5.26;98.74;101438.02;115729;1192;72272;-80
2021/10/16 06:09:32;;;;;;;39.70;11.40;;;;;;;5.28;98.44;101442.03;115588;1192;59064;-80
2021/10/16 06:11:59;;;;;;;39.40;13.50;;;;;;;5.31;98.40;101444.80;115711;1192;59389;-80
2021/10/16 06:14:25;;;;;;;35.70;11.50;;;;;;;5.34;98.43;101449.73;115791;1192;59131;-80
2021/10/16 06:16:52;;;;;;;35.30;12.90;;;;;;;5.37;98.45;101453.17;115720;1192;59150;-80
2021/10/16 06:19:19;;;;;;;50.00;14.50;;;;;;;5.40;98.27;101455.71;115765;1192;72638;-80
2021/10/16 06:21:46;;;;;;;34.90;12.30;;;;;;;5.42;98.17;101457.27;115667;1192;62209;-80
2021/10/16 06:24:12;;;;;;;38.30;13.10;;;;;;;5.44;97.92;101457.16;115777;1192;60089;-80
2021/10/16 06:26:40;;;;;;;36.40;11.30;;;;;;;5.45;97.82;101455.46;115776;1192;74836;-80
2021/10/16 06:29:06;;;;;;;37.50;14.00;;;;;;;5.46;97.78;101459.73;115722;1192;72163;-80
2021/10/16 06:31:33;;;;;;;36.80;11.90;;;;;;;5.49;97.66;101462.48;115795;1192;73783;-80
2021/10/16 06:34:00;;;;;;;43.30;14.40;;;;;;;5.52;97.60;101464.56;115838;1192;63107;-82
2021/10/16 06:36:26;;;;;;;33.90;14.50;;;;;;;5.55;97.69;101467.99;115782;1192;60124;-81
2021/10/16 06:38:53;;;;;;;43.40;12.80;;;;;;;5.59;97.41;101469.77;115806;1192;76285;-81
2021/10/16 06:41:20;;;;;;;43.50;12.40;;;;;;;5.64;97.53;101477.95;115820;1192;59543;-80
2021/10/16 06:43:46;;;;;;;42.00;12.20;;;;;;;5.70;97.46;101477.63;115849;1192;73745;-81
2021/10/16 06:46:13;;;;;;;37.10;13.80;;;;;;;5.74;97.22;101477.73;115787;1192;62836;-82
2021/10/16 06:48:39;;;;;;;47.80;12.80;;;;;;;5.80;97.04;101474.45;115796;1184;60262;-81
2021/10/16 06:51:06;;;;;;;34.00;12.80;;;;;;;5.84;96.92;101476.73;115831;1192;59020;-81
2021/10/16 06:53:32;;;;;;;44.80;13.20;;;;;;;5.87;96.82;101482.05;115503;1192;71427;-82
2021/10/16 06:55:59;;;;;;;35.70;13.10;;;;;;;5.91;96.67;101483.34;115154;1192;59081;-81
2021/10/16 06:58:25;;;;;;;37.10;14.10;;;;;;;5.95;96.46;101480.27;115607;1192;61684;-81
2021/10/16 07:00:52;;;;;;;32.60;13.10;;;;;;;5.99;96.35;101483.95;115463;1192;61341;-81
2021/10/16 07:03:19;;;;;;;33.90;11.60;;;;;;;6.03;96.33;101483.60;115777;1191;74534;-81
2021/10/16 07:05:46;;;;;;;34.90;11.90;;;;;;;6.06;96.04;101488.61;115750;1192;70781;-81
2021/10/16 07:08:13;;;;;;;43.30;12.70;;;;;;;6.11;96.22;101490.20;115825;1192;72722;-81
2021/10/16 07:10:41;;;;;;;42.90;13.70;;;;;;;6.14;95.98;101490.63;115744;1192;62811;-73
2021/10/16 07:13:08;;;;;;;40.40;12.50;;;;;;;6.19;96.03;101491.42;115713;1192;61206;-72
2021/10/16 07:15:35;;;;;;;37.80;13.50;;;;;;;6.27;95.86;101493.42;115691;1192;75678;-74
2021/10/16 07:18:02;;;;;;;35.80;14.70;;;;;;;6.32;95.47;101497.56;115650;1192;59005;-73
2021/10/16 07:20:29;;;;;;;58.60;15.60;;;;;;;6.38;95.15;101496.25;115657;1192;74631;-74
2021/10/16 07:22:55;;;;;;;36.00;13.90;;;;;;;6.45;95.31;101501.58;115782;1192;62668;-73
2021/10/16 07:25:22;;;;;;;42.00;14.50;;;;;;;6.54;95.23;101504.91;115642;1192;61202;-73
2021/10/16 07:27:51;;;;;;;38.60;14.80;;;;;;;6.60;94.87;101511.23;115643;1192;75268;-73
2021/10/16 07:30:19;;;;;;;43.70;14.00;;;;;;;6.67;95.05;101509.07;115768;1192;72053;-73
2021/10/16 07:32:46;;;;;;;33.20;13.20;;;;;;;6.75;95.02;101506.09;115587;1192;72541;-73
2021/10/16 07:35:13;;;;;;;36.10;13.60;;;;;;;6.82;94.65;101506.20;115735;1191;61643;-73
2021/10/16 07:37:40;;;;;;;43.60;15.10;;;;;;;6.93;94.77;101509.13;115798;1192;60885;-73
2021/10/16 07:40:07;;;;;;;38.00;15.50;;;;;;;7.03;94.27;101509.38;115760;1191;75663;-73
2021/10/16 07:42:34;;;;;;;42.70;14.90;;;;;;;7.09;93.60;101502.30;115797;1191;72022;-73
2021/10/16 07:45:00;;;;;;;34.50;13.10;;;;;;;7.17;93.40;101504.65;115801;1191;59379;-74
2021/10/16 07:47:27;;;;;;;50.10;14.90;;;;;;;7.25;93.40;101511.70;115809;1191;61989;-73
2021/10/16 07:49:55;;;;;;;38.40;14.80;;;;;;;7.36;93.73;101515.79;115752;1192;61081;-73
2021/10/16 07:52:22;;;;;;;38.10;13.80;;;;;;;7.50;93.35;101516.69;115679;1184;75742;-74
2021/10/16 07:54:49;;;;;;;37.00;14.20;;;;;;;7.61;91.90;101516.08;115597;1192;70161;-73
2021/10/16 07:57:16;;;;;;;39.90;14.00;;;;;;;7.69;91.38;101518.58;115712;1192;72940;-73
2021/10/16 07:59:42;;;;;;;51.40;14.00;;;;;;;7.73;90.85;101525.59;115742;1192;62029;-73
2021/10/16 08:02:09;;;;;;;64.10;16.30;;;;;;;7.78;90.75;101520.23;115798;1192;60609;-73
2021/10/16 08:04:35;;;;;;;39.30;14.70;;;;;;;7.81;90.23;101521.04;115718;1191;58791;-74
2021/10/16 08:07:02;;;;;;;42.80;14.60;;;;;;;7.83;90.30;101524.58;115742;1192;58889;-73
2021/10/16 08:09:28;;;;;;;39.60;13.10;;;;;;;7.87;90.60;101527.77;115755;1192;73651;-73
2021/10/16 08:11:55;;;;;;;43.30;14.30;;;;;;;7.88;89.87;101532.44;115694;1192;59004;-73
2021/10/16 08:14:21;;;;;;;42.50;15.10;;;;;;;7.92;90.56;101531.16;115620;1192;58949;-73
2021/10/16 08:16:48;;;;;;;41.40;16.00;;;;;;;7.99;90.36;101528.20;115756;1191;59558;-73
2021/10/16 08:19:15;;;;;;;49.20;16.20;;;;;;;8.07;89.92;101528.05;115527;1192;72130;-73
2021/10/16 08:21:42;;;;;;;32.80;11.80;;;;;;;8.15;89.44;101529.30;115122;1192;61417;-73
2021/10/16 08:24:08;;;;;;;37.00;13.50;;;;;;;8.21;89.69;101533.45;115359;1192;63440;-72
2021/10/16 08:26:35;;;;;;;56.20;15.60;;;;;;;8.29;89.71;101533.17;114972;1192;60936;-72
2021/10/16 08:29:01;;;;;;;36.50;14.00;;;;;;;8.35;89.41;101532.67;114350;1192;74610;-73
2021/10/16 08:31:29;;;;;;;37.10;13.40;;;;;;;8.42;88.71;101536.85;114117;1192;70435;-74
2021/10/16 08:33:55;;;;;;;31.90;13.20;;;;;;;8.51;88.83;101538.85;114523;1191;72603;-72
2021/10/16 08:36:22;;;;;;;45.90;13.50;;;;;;;8.62;88.69;101539.11;115267;1192;59627;-74
2021/10/16 08:38:52;;;;;;;36.10;13.80;;;;;;;8.71;88.20;101540.91;115489;1192;61107;-73
2021/10/16 08:41:19;;;;;;;31.10;13.90;;;;;;;8.80;87.53;101541.19;115604;1192;74673;-73
2021/10/16 08:43:45;;;;;;;44.40;13.80;;;;;;;8.89;87.15;101539.50;115727;1192;71449;-73
2021/10/16 08:46:13;;;;;;;40.20;14.80;;;;;;;8.96;86.42;101538.40;115687;1192;72920;-72
2021/10/16 08:48:40;;;;;;;32.30;14.50;;;;;;;9.05;86.16;101536.05;115785;1192;61939;-73
2021/10/16 08:51:08;;;;;;;37.10;12.40;;;;;;;9.16;86.67;101541.16;115760;1192;61269;-73
2021/10/16 08:53:37;;;;;;;30.10;12.50;;;;;;;9.30;86.69;101541.45;115688;1192;73820;-73
2021/10/16 08:56:04;;;;;;;27.60;10.60;;;;;;;9.41;85.69;101546.79;115732;1192;72212;-72
2021/10/16 08:58:32;;;;;;;36.50;15.40;;;;;;;9.43;84.99;101542.98;115736;1192;72502;-72
2021/10/16 09:01:04;;;;;;;28.20;12.60;;;;;;;9.50;85.14;101541.80;115762;1192;61808;-73
2021/10/16 09:03:34;;;;;;;27.50;12.10;;;;;;;9.61;85.50;101544.69;115646;1192;60225;-72
2021/10/16 09:06:12;;;;;;;23.60;10.30;;;;;;;9.67;84.74;101544.55;115860;1191;75743;-72
2021/10/16 09:08:48;;;;;;;37.50;13.70;;;;;;;9.66;84.07;101546.81;115664;1192;72105;-73
2021/10/16 09:11:26;;;;;;;29.10;14.20;;;;;;;9.69;85.23;101541.89;115705;1192;72496;-73
2021/10/16 09:14:10;;;;;;;32.60;12.40;;;;;;;9.80;84.71;101535.94;115647;1192;62825;-73
2021/10/16 09:16:47;;;;;;;29.90;13.50;;;;;;;9.88;85.01;101538.88;115754;1192;61165;-73
2021/10/16 09:19:18;;;;;;;28.90;10.70;;;;;;;10.00;84.69;101536.98;115619;1191;74636;-72
2021/10/16 09:21:53;;;;;;;35.50;12.10;;;;;;;10.07;83.86;101541.29;115769;1192;70682;-73
2021/10/16 09:24:29;;;;;;;22.40;10.30;;;;;;;10.18;83.62;101539.61;115713;1192;73641;-72
2021/10/16 09:26:58;;;;;;;28.00;10.50;;;;;;;10.32;83.26;101539.86;115776;1191;61871;-73
2021/10/16 09:29:29;;;;;;;20.60;7.90;;;;;;;10.48;82.73;101537.09;115707;1192;60111;-73
2021/10/16 09:32:10;;;;;;;42.20;11.70;;;;;;;10.56;82.00;101540.44;115763;1191;74535;-73
2021/10/16 09:34:40;;;;;;;29.90;11.90;;;;;;;10.71;81.66;101539.38;115753;1192;70773;-73
2021/10/16 09:37:12;;;;;;;27.10;9.80;;;;;;;10.88;81.40;101544.48;115777;1192;71691;-72
2021/10/16 09:39:41;;;;;;;26.90;9.30;;;;;;;11.10;81.08;101543.14;115740;1192;63037;-72
2021/10/16 09:42:09;;;;;;;40.40;12.70;;;;;;;11.38;80.44;101537.24;115713;1192;60759;-72
2021/10/16 09:44:38;;;;;;;47.50;11.80;;;;;;;11.64;79.66;101541.46;115742;1191;75668;-73
2021/10/16 09:47:12;;;;;;;33.60;10.30;;;;;;;11.74;76.90;101540.96;115847;1192;72169;-73
2021/10/16 09:49:43;;;;;;;26.00;10.30;;;;;;;11.81;76.73;101539.25;115786;1192;72536;-73
2021/10/16 09:52:16;;;;;;;21.20;8.40;;;;;;;11.90;76.64;101542.35;115720;1192;62073;-73
2021/10/16 09:54:44;;;;;;;26.00;8.60;;;;;;;11.95;75.81;101541.95;115770;1192;61264;-73
2021/10/16 09:57:14;;;;;;;26.10;8.00;;;;;;;12.00;75.69;101542.27;115755;1192;75601;-73
2021/10/16 09:59:43;;;;;;;18.50;9.30;;;;;;;12.10;76.25;101543.33;115575;1192;71722;-73
2021/10/16 10:02:10;;;;;;;29.40;7.90;;;;;;;12.27;76.14;101542.24;115736;1192;73586;-73
2021/10/16 10:04:42;;;;;;;18.10;8.60;;;;;;;12.45;75.71;101538.39;115739;1192;61737;-73
2021/10/16 10:07:09;;;;;;;17.90;7.30;;;;;;;12.60;74.68;101539.67;115807;1191;60160;-73
2021/10/16 10:09:39;;;;;;;26.50;8.80;;;;;;;12.78;74.58;101543.16;115791;1192;74390;-73
2021/10/16 10:12:06;;;;;;;35.00;9.00;;;;;;;12.93;74.41;101542.87;115755;1192;70876;-72
2021/10/16 10:14:33;;;;;;;23.30;7.60;;;;;;;13.10;73.57;101541.33;115696;1192;73585;-72
2021/10/16 10:17:06;;;;;;;27.90;7.20;;;;;;;13.30;72.82;101538.66;115710;1192;61980;-73
2021/10/16 10:19:38;;;;;;;27.10;8.70;;;;;;;13.47;72.04;101533.70;115694;1192;60951;-73
2021/10/16 10:22:16;;;;;;;12.80;4.70;;;;;;;13.64;70.34;101535.36;115641;1192;75377;-73
2021/10/16 10:24:46;;;;;;;16.20;4.80;;;;;;;13.74;69.52;101539.74;115696;1191;71990;-72
2021/10/16 10:27:14;;;;;;;13.50;6.00;;;;;;;13.87;68.89;101536.75;115702;1192;73477;-73
2021/10/16 10:29:45;;;;;;;17.00;4.80;;;;;;;13.99;68.55;101530.98;115679;1192;61779;-73
2021/10/16 10:32:21;;;;;;;17.20;5.70;;;;;;;14.19;69.51;101528.48;115735;1192;60939;-73
2021/10/16 10:35:14;;;;;;;8.20;3.10;;;;;;;14.36;65.96;101531.55;115719;1192;74573;-73
2021/10/16 10:37:49;;;;;;;13.50;4.40;;;;;;;14.27;63.85;101531.59;115708;1192;71012;-73
2021/10/16 10:40:21;;;;;;;22.00;6.30;;;;;;;14.32;64.53;101531.11;115684;1192;73244;-73
2021/10/16 10:42:53;;;;;;;16.10;4.50;;;;;;;14.27;63.83;101529.39;115672;1192;61971;-75
2021/10/16 10:45:27;;;;;;;10.80;4.40;;;;;;;14.15;63.53;101529.48;115744;1192;60218;-74
2021/10/16 10:48:01;;;;;;;13.20;3.90;;;;;;;14.07;64.42;101527.02;115768;1192;75682;-74
2021/10/16 10:50:47;;;;;;;12.70;5.10;;;;;;;14.01;64.03;101526.27;115710;1192;72112;-74
2021/10/16 10:53:25;;;;;;;11.30;3.30;;;;;;;14.03;65.59;101518.55;115748;1191;72529;-73
2021/10/16 10:55:55;;;;;;;12.70;3.70;;;;;;;13.94;63.41;101519.30;115585;1192;62099;-74
2021/10/16 10:58:23;;;;;;;12.00;4.20;;;;;;;13.73;62.98;101520.94;115721;1192;61216;-74
2021/10/16 11:00:52;;;;;;;11.80;3.60;;;;;;;13.51;63.56;101522.99;115669;1192;74746;-75
2021/10/16 11:03:28;;;;;;;8.60;3.20;;;;;;;13.38;64.85;101517.12;115748;1192;70738;-74
2021/10/16 11:06:09;;;;;;;10.40;3.30;;;;;;;13.26;65.07;101515.60;115594;1192;72279;-74
2021/10/16 11:08:37;;;;;;;10.00;3.00;;;;;;;13.14;65.48;101515.14;115636;1191;62021;-74
2021/10/16 11:11:04;;;;;;;11.10;3.80;;;;;;;13.00;65.47;101518.32;115662;1186;60373;-74
2021/10/16 11:13:35;;;;;;;16.20;4.30;;;;;;;12.88;66.10;101511.52;115608;1191;73744;-74
2021/10/16 11:16:04;;;;;;;8.00;2.80;;;;;;;12.79;65.59;101508.23;115723;1191;71165;-75